createdAt,value
2023-05-14T00:02:17.761Z,21.20
2023-05-14T00:04:45.869Z,21.00
2023-05-14T00:07:13.726Z,20.40
2023-05-14T00:09:41.427Z,19.30
2023-05-14T00:12:09.473Z,18.90
2023-05-14T00:14:37.206Z,19.90
2023-05-14T00:17:06.748Z,20.60
2023-05-14T00:19:34.688Z,18.20
2023-05-14T00:22:02.462Z,18.60
2023-05-14T00:24:30.457Z,19.20
2023-05-14T00:26:58.173Z,22.70
2023-05-14T00:29:26.063Z,21.00
2023-05-14T00:31:53.837Z,20.40
2023-05-14T00:34:21.969Z,17.80
2023-05-14T00:36:50.796Z,17.00
2023-05-14T00:39:18.546Z,18.60
2023-05-14T00:41:46.368Z,19.10
2023-05-14T00:44:14.085Z,21.50
2023-05-14T00:46:43.803Z,17.70
2023-05-14T00:49:12.327Z,18.20
2023-05-14T00:51:41.598Z,18.00
2023-05-14T00:54:09.459Z,20.00
2023-05-14T00:56:37.280Z,19.80
2023-05-14T00:59:05.017Z,25.00
2023-05-14T01:01:32.890Z,20.60
2023-05-14T01:04:00.858Z,20.40
2023-05-14T01:06:32.555Z,20.50
2023-05-14T01:09:10.458Z,21.20
2023-05-14T01:11:59.334Z,21.60
2023-05-14T01:14:36.726Z,19.80
2023-05-14T01:17:04.851Z,20.60
2023-05-14T01:19:32.568Z,19.70
2023-05-14T01:22:00.365Z,19.20
2023-05-14T01:24:28.286Z,19.20
2023-05-14T01:27:00.337Z,17.40
2023-05-14T01:29:29.220Z,19.70
2023-05-14T01:31:57.578Z,18.80
2023-05-14T01:34:26.980Z,20.30
2023-05-14T01:36:55.929Z,19.40
2023-05-14T01:39:25.122Z,18.20
2023-05-14T01:41:53.501Z,18.90
2023-05-14T01:44:21.654Z,19.40
2023-05-14T01:46:49.719Z,19.20
2023-05-14T01:49:18.729Z,18.30
2023-05-14T01:51:46.878Z,20.30
2023-05-14T01:54:14.619Z,19.30
2023-05-14T01:56:42.369Z,19.10
2023-05-14T01:59:10.241Z,19.40
2023-05-14T02:01:38.125Z,18.20
2023-05-14T02:04:06.157Z,19.90
2023-05-14T02:06:33.939Z,18.40
2023-05-14T02:09:02.511Z,17.60
2023-05-14T02:11:30.641Z,16.50
2023-05-14T02:13:58.438Z,20.10
2023-05-14T02:16:26.386Z,19.00
2023-05-14T02:18:54.176Z,22.20
2023-05-14T02:21:22.085Z,17.40
2023-05-14T02:23:50.316Z,17.20
2023-05-14T02:26:18.123Z,16.50
2023-05-14T02:28:46.013Z,16.60
2023-05-14T02:31:14.642Z,15.70
2023-05-14T02:33:43.328Z,18.30
2023-05-14T02:36:11.417Z,16.90
2023-05-14T02:38:39.147Z,17.20
2023-05-14T02:41:07.202Z,15.90
2023-05-14T02:43:34.975Z,15.60
2023-05-14T02:46:02.829Z,18.30
2023-05-14T02:48:30.674Z,14.90
2023-05-14T02:50:58.390Z,16.80
2023-05-14T02:53:26.284Z,16.00
2023-05-14T02:55:54.036Z,20.10
2023-05-14T02:58:25.781Z,17.50
2023-05-14T03:00:56.517Z,18.70
2023-05-14T03:03:25.004Z,16.90
2023-05-14T03:05:53.634Z,16.20
2023-05-14T03:08:21.335Z,15.80
2023-05-14T03:10:49.072Z,17.20
2023-05-14T03:13:18.118Z,19.40
2023-05-14T03:15:47.240Z,17.70
2023-05-14T03:18:15.184Z,18.40
2023-05-14T03:20:43.015Z,21.50
2023-05-14T03:23:10.775Z,18.20
2023-05-14T03:25:38.539Z,19.40
2023-05-14T03:28:06.583Z,17.50
2023-05-14T03:30:34.411Z,15.70
2023-05-14T03:33:02.282Z,15.80
2023-05-14T03:35:30.429Z,16.80
2023-05-14T03:37:59.405Z,19.30
2023-05-14T03:40:27.844Z,17.70
2023-05-14T03:42:56.238Z,18.50
2023-05-14T03:45:24.310Z,18.30
2023-05-14T03:47:52.148Z,17.60
2023-05-14T03:50:20.482Z,16.70
2023-05-14T03:52:48.429Z,16.30
2023-05-14T03:55:16.257Z,16.30
2023-05-14T03:57:44.073Z,16.10
2023-05-14T04:00:12.345Z,19.00
2023-05-14T04:02:46.080Z,16.40
2023-05-14T04:05:14.109Z,19.40
2023-05-14T04:07:41.857Z,17.60
2023-05-14T04:10:09.722Z,19.20
2023-05-14T04:12:37.464Z,17.40
2023-05-14T04:15:05.530Z,16.40
2023-05-14T04:17:34.962Z,16.30
2023-05-14T04:20:03.333Z,16.60
2023-05-14T04:22:32.144Z,14.60
2023-05-14T04:24:59.867Z,15.00
2023-05-14T04:27:28.593Z,14.80
2023-05-14T04:29:56.569Z,15.50
2023-05-14T04:32:24.805Z,15.70
2023-05-14T04:34:52.648Z,15.90
2023-05-14T04:37:20.442Z,16.00
2023-05-14T04:39:48.208Z,15.80
2023-05-14T04:42:16.236Z,14.10
2023-05-14T04:44:44.035Z,14.00
2023-05-14T04:47:12.544Z,13.80
2023-05-14T04:49:40.394Z,13.60
2023-05-14T04:52:08.127Z,14.40
2023-05-14T04:54:35.960Z,15.70
2023-05-14T04:57:03.899Z,14.50
2023-05-14T04:59:31.666Z,14.40
2023-05-14T05:01:59.628Z,14.90
2023-05-14T05:04:27.914Z,14.60
2023-05-14T05:06:55.716Z,14.40
2023-05-14T05:09:23.577Z,15.20
2023-05-14T05:11:51.494Z,15.60
2023-05-14T05:14:19.393Z,14.00
2023-05-14T05:16:47.762Z,15.00
2023-05-14T05:19:15.841Z,14.10
2023-05-14T05:21:43.789Z,15.30
2023-05-14T05:24:11.677Z,15.40
2023-05-14T05:26:39.409Z,15.20
2023-05-14T05:29:07.375Z,15.00
2023-05-14T05:31:35.466Z,16.80
2023-05-14T05:34:03.374Z,17.10
2023-05-14T05:36:32.075Z,29.80
2023-05-14T05:38:59.847Z,27.10
2023-05-14T05:41:27.645Z,21.00
2023-05-14T05:43:55.994Z,26.40
2023-05-14T05:46:23.791Z,19.00
2023-05-14T05:48:53.313Z,19.30
2023-05-14T05:51:21.095Z,18.10
2023-05-14T05:53:48.961Z,18.30
2023-05-14T05:56:16.704Z,18.40
2023-05-14T05:58:44.598Z,18.10
2023-05-14T06:01:12.333Z,18.00
2023-05-14T06:03:40.098Z,20.00
2023-05-14T06:06:08.030Z,17.50
2023-05-14T06:08:35.954Z,18.90
2023-05-14T06:11:04.536Z,19.60
2023-05-14T06:13:32.277Z,18.70
2023-05-14T06:16:00.371Z,19.80
2023-05-14T06:18:28.256Z,18.20
2023-05-14T06:20:57.184Z,19.10
2023-05-14T06:23:24.993Z,18.60
2023-05-14T06:25:52.786Z,18.60
2023-05-14T06:28:20.755Z,18.20
2023-05-14T06:30:51.986Z,18.60
2023-05-14T06:33:21.809Z,19.00
2023-05-14T06:35:49.572Z,19.30
2023-05-14T06:38:17.332Z,20.70
2023-05-14T06:40:45.562Z,23.30
2023-05-14T06:43:13.341Z,19.40
2023-05-14T06:45:41.090Z,18.30
2023-05-14T06:48:10.335Z,18.30
2023-05-14T06:50:38.276Z,17.40
2023-05-14T06:53:06.154Z,15.90
2023-05-14T06:55:33.970Z,16.60
2023-05-14T06:58:01.939Z,16.30
2023-05-14T07:00:30.647Z,17.40
2023-05-14T07:02:58.476Z,16.30
2023-05-14T07:05:26.719Z,16.90
2023-05-14T07:07:54.566Z,16.80
2023-05-14T07:10:22.784Z,16.50
2023-05-14T07:12:51.000Z,14.70
2023-05-14T07:15:18.801Z,12.80
2023-05-14T07:17:46.645Z,13.90
2023-05-14T07:20:14.575Z,14.70
2023-05-14T07:22:42.425Z,16.30
2023-05-14T07:25:10.585Z,16.40
2023-05-14T07:27:38.294Z,15.40
2023-05-14T07:30:06.732Z,16.60
2023-05-14T07:32:34.479Z,14.50
2023-05-14T07:35:02.555Z,15.20
2023-05-14T07:37:30.325Z,14.20
2023-05-14T07:39:58.465Z,14.70
2023-05-14T07:42:35.973Z,12.20
2023-05-14T07:45:05.339Z,13.20
2023-05-14T07:47:33.322Z,11.70
2023-05-14T07:50:01.464Z,10.10
2023-05-14T07:52:29.182Z,12.00
2023-05-14T07:54:56.908Z,11.30
2023-05-14T07:57:24.805Z,12.40
2023-05-14T07:59:52.690Z,12.10
2023-05-14T08:02:20.446Z,12.30
2023-05-14T08:04:48.381Z,11.10
2023-05-14T08:07:16.183Z,10.50
2023-05-14T08:09:44.072Z,11.40
2023-05-14T08:12:11.998Z,11.20
2023-05-14T08:14:39.715Z,11.10
2023-05-14T08:17:07.587Z,12.40
2023-05-14T08:19:35.738Z,11.80
2023-05-14T08:22:03.937Z,9.60
2023-05-14T08:24:31.768Z,9.60
2023-05-14T08:26:59.550Z,10.90
2023-05-14T08:29:27.289Z,8.90
2023-05-14T08:31:55.002Z,9.60
2023-05-14T08:34:22.934Z,8.20
2023-05-14T08:36:51.109Z,9.50
2023-05-14T08:39:19.245Z,9.10
2023-05-14T08:41:48.054Z,9.70
2023-05-14T08:44:20.040Z,10.70
2023-05-14T08:46:49.736Z,11.60
2023-05-14T08:49:36.497Z,11.60
2023-05-14T08:52:04.690Z,11.90
2023-05-14T08:54:32.898Z,12.50
2023-05-14T08:57:00.953Z,11.60
2023-05-14T08:59:28.902Z,12.00
2023-05-14T09:01:58.728Z,13.10
2023-05-14T09:04:27.769Z,12.90
2023-05-14T09:06:56.040Z,12.40
2023-05-14T09:09:24.091Z,11.90
2023-05-14T09:11:53.041Z,10.90
2023-05-14T09:14:22.382Z,11.90
2023-05-14T09:16:51.167Z,9.90
2023-05-14T09:19:19.677Z,14.80
2023-05-14T09:21:48.747Z,10.50
2023-05-14T09:24:21.358Z,9.80
2023-05-14T09:26:53.184Z,8.50
2023-05-14T09:29:21.468Z,9.50
2023-05-14T09:31:50.549Z,10.30
2023-05-14T09:34:25.781Z,10.00
2023-05-14T09:36:57.982Z,9.00
2023-05-14T09:39:26.629Z,5.80
2023-05-14T09:41:55.969Z,6.00
2023-05-14T09:44:24.701Z,6.30
2023-05-14T09:46:53.365Z,7.70
2023-05-14T09:49:21.593Z,11.90
2023-05-14T09:51:49.980Z,6.70
2023-05-14T09:54:17.949Z,6.00
2023-05-14T09:56:46.016Z,5.50
2023-05-14T09:59:14.188Z,5.70
2023-05-14T10:01:42.929Z,5.70
2023-05-14T10:04:11.805Z,5.00
2023-05-14T10:06:40.337Z,5.70
2023-05-14T10:09:13.028Z,4.70
2023-05-14T10:11:43.264Z,4.40
2023-05-14T10:16:53.576Z,4.70
2023-05-14T10:19:23.816Z,4.30
2023-05-14T10:22:04.309Z,11.00
2023-05-14T10:24:33.103Z,3.90
2023-05-14T10:27:01.372Z,5.40
2023-05-14T10:29:36.713Z,4.40
2023-05-14T10:32:08.757Z,3.80
2023-05-14T10:34:38.531Z,11.60
2023-05-14T10:37:14.518Z,10.00
2023-05-14T10:39:50.591Z,19.10
2023-05-14T10:42:23.008Z,4.50
2023-05-14T10:44:52.498Z,4.70
2023-05-14T10:47:20.775Z,4.80
2023-05-14T10:49:53.174Z,3.70
2023-05-14T10:52:21.511Z,4.20
2023-05-14T10:55:02.635Z,4.30
2023-05-14T10:57:31.981Z,3.90
2023-05-14T11:00:01.154Z,4.70
2023-05-14T11:02:30.419Z,4.60
2023-05-14T11:05:00.479Z,3.80
2023-05-14T11:07:29.921Z,5.00
2023-05-14T11:10:01.885Z,4.80
2023-05-14T11:12:30.074Z,4.50
2023-05-14T11:14:59.293Z,4.50
2023-05-14T11:17:28.094Z,4.90
2023-05-14T11:22:26.068Z,5.70
2023-05-14T11:24:54.357Z,4.40
2023-05-14T11:27:24.015Z,5.90
2023-05-14T11:29:52.205Z,5.20
2023-05-14T11:32:20.388Z,4.80
2023-05-14T11:34:48.545Z,5.10
2023-05-14T11:37:16.843Z,4.80
2023-05-14T11:39:52.418Z,4.70
2023-05-14T11:42:21.315Z,4.70
2023-05-14T11:44:51.993Z,4.90
2023-05-14T11:47:21.606Z,4.40
2023-05-14T11:49:49.979Z,5.50
2023-05-14T11:52:19.708Z,43.60
2023-05-14T11:54:50.065Z,12.30
2023-05-14T11:57:21.085Z,7.90
2023-05-14T12:02:18.355Z,7.00
2023-05-14T12:04:50.808Z,5.70
2023-05-14T12:07:19.049Z,5.40
2023-05-14T12:09:49.798Z,4.90
2023-05-14T12:14:45.909Z,4.30
2023-05-14T12:17:13.820Z,5.20
2023-05-14T12:19:43.074Z,4.30
2023-05-14T12:22:11.715Z,4.80
2023-05-14T12:24:40.284Z,4.70
2023-05-14T12:27:09.553Z,4.30
2023-05-14T12:29:38.941Z,4.40
2023-05-14T12:32:10.932Z,4.40
2023-05-14T12:34:39.033Z,4.10
2023-05-14T12:37:07.079Z,4.50
2023-05-14T12:39:35.176Z,4.90
2023-05-14T12:42:03.393Z,4.50
2023-05-14T12:44:31.702Z,5.20
2023-05-14T12:46:59.663Z,4.20
2023-05-14T12:49:27.927Z,4.90
2023-05-14T12:52:07.627Z,5.00
2023-05-14T12:54:36.445Z,6.00
2023-05-14T12:57:04.560Z,5.10
2023-05-14T12:59:32.466Z,5.00
2023-05-14T13:02:00.454Z,4.60
2023-05-14T13:04:28.413Z,8.60
2023-05-14T13:06:56.487Z,4.80
2023-05-14T13:09:24.858Z,4.90
2023-05-14T13:11:52.759Z,4.40
2023-05-14T13:14:20.844Z,4.60
2023-05-14T13:16:48.939Z,3.80
2023-05-14T13:19:16.912Z,3.60
2023-05-14T13:21:45.020Z,4.20
2023-05-14T13:24:12.992Z,3.80
2023-05-14T13:26:40.995Z,4.40
2023-05-14T13:29:08.852Z,4.30
2023-05-14T13:31:36.830Z,4.20
2023-05-14T13:34:04.868Z,3.90
2023-05-14T13:36:32.838Z,3.60
2023-05-14T13:39:00.856Z,3.70
2023-05-14T13:41:30.200Z,4.00
2023-05-14T13:43:58.170Z,4.00
2023-05-14T13:46:26.174Z,4.00
2023-05-14T13:48:54.181Z,3.90
2023-05-14T13:51:25.624Z,4.00
2023-05-14T13:56:22.547Z,4.00
2023-05-14T13:58:50.423Z,4.10
2023-05-14T14:01:18.577Z,4.00
2023-05-14T14:03:46.585Z,4.40
2023-05-14T14:06:14.806Z,4.20
2023-05-14T14:08:42.880Z,4.10
2023-05-14T14:11:10.756Z,6.70
2023-05-14T14:13:39.877Z,3.90
2023-05-14T14:16:07.864Z,4.10
2023-05-14T14:18:36.208Z,4.70
2023-05-14T14:21:04.486Z,5.40
2023-05-14T14:23:32.505Z,4.30
2023-05-14T14:26:00.999Z,5.00
2023-05-14T14:28:28.953Z,4.40
2023-05-14T14:30:56.915Z,4.30
2023-05-14T14:33:25.837Z,4.10
2023-05-14T14:35:53.859Z,4.10
2023-05-14T14:38:21.844Z,3.80
2023-05-14T14:40:50.014Z,4.40
2023-05-14T14:43:18.007Z,4.40
2023-05-14T14:45:48.320Z,4.00
2023-05-14T14:48:39.766Z,4.40
2023-05-14T14:51:08.650Z,4.10
2023-05-14T14:53:38.538Z,4.30
2023-05-14T14:56:06.645Z,15.70
2023-05-14T14:58:34.770Z,26.40
2023-05-14T15:01:03.029Z,5.70
2023-05-14T15:03:31.532Z,4.00
2023-05-14T15:05:59.682Z,4.10
2023-05-14T15:08:28.281Z,9.80
2023-05-14T15:10:56.725Z,4.60
2023-05-14T15:13:25.306Z,4.60
2023-05-14T15:15:53.644Z,4.40
2023-05-14T15:18:21.864Z,5.20
2023-05-14T15:20:50.073Z,4.30
2023-05-14T15:23:18.068Z,5.70
2023-05-14T15:25:46.450Z,6.20
2023-05-14T15:28:14.352Z,6.30
2023-05-14T15:30:42.574Z,6.80
2023-05-14T15:33:10.665Z,6.70
2023-05-14T15:35:39.232Z,6.40
2023-05-14T15:38:07.398Z,7.10
2023-05-14T15:40:35.320Z,7.40
2023-05-14T15:43:03.546Z,8.70
2023-05-14T15:45:31.519Z,7.30
2023-05-14T15:47:59.671Z,9.20
2023-05-14T15:50:27.674Z,7.80
2023-05-14T15:52:55.855Z,8.40
2023-05-14T15:55:23.792Z,8.80
2023-05-14T15:57:51.780Z,14.50
2023-05-14T16:00:20.366Z,33.10
2023-05-14T16:02:48.409Z,14.70
2023-05-14T16:05:16.551Z,9.50
2023-05-14T16:07:44.538Z,9.20
2023-05-14T16:10:12.902Z,9.90
2023-05-14T16:12:40.920Z,8.80
2023-05-14T16:15:09.410Z,9.30
2023-05-14T16:17:38.026Z,8.50
2023-05-14T16:20:06.562Z,8.80
2023-05-14T16:22:35.378Z,9.60
2023-05-14T16:25:04.966Z,10.40
2023-05-14T16:27:33.024Z,10.30
2023-05-14T16:30:01.120Z,7.70
2023-05-14T16:32:29.440Z,8.80
2023-05-14T16:34:57.784Z,9.50
2023-05-14T16:37:25.946Z,9.60
2023-05-14T16:39:54.927Z,7.70
2023-05-14T16:42:23.089Z,8.40
2023-05-14T16:44:51.411Z,10.00
2023-05-14T16:47:19.663Z,9.20
2023-05-14T16:49:47.745Z,8.60
2023-05-14T16:52:15.801Z,9.30
2023-05-14T16:54:43.758Z,8.30
2023-05-14T16:57:11.857Z,8.80
2023-05-14T16:59:39.842Z,8.40
2023-05-14T17:02:08.457Z,7.90
2023-05-14T17:04:38.877Z,8.20
2023-05-14T17:07:07.025Z,10.30
2023-05-14T17:09:35.083Z,12.30
2023-05-14T17:12:03.140Z,11.30
2023-05-14T17:14:31.770Z,10.50
2023-05-14T17:16:59.789Z,9.00
2023-05-14T17:19:28.151Z,9.20
2023-05-14T17:21:56.216Z,8.60
2023-05-14T17:24:24.295Z,7.50
2023-05-14T17:26:52.278Z,7.20
2023-05-14T17:29:20.414Z,7.20
2023-05-14T17:31:48.818Z,7.50
2023-05-14T17:34:17.799Z,7.90
2023-05-14T17:36:45.991Z,8.10
2023-05-14T17:39:14.040Z,8.10
2023-05-14T17:41:42.194Z,8.10
2023-05-14T17:44:12.560Z,8.60
2023-05-14T17:46:42.557Z,8.40
2023-05-14T17:49:11.966Z,9.10
2023-05-14T17:51:40.428Z,11.10
2023-05-14T17:54:08.346Z,7.80
2023-05-14T17:56:36.509Z,8.10
2023-05-14T17:59:04.531Z,10.60
2023-05-14T18:01:32.558Z,6.80
2023-05-14T18:04:00.778Z,6.90
2023-05-14T18:06:28.993Z,8.90
2023-05-14T18:08:57.071Z,9.50
2023-05-14T18:11:32.771Z,10.70
2023-05-14T18:14:01.164Z,11.80
2023-05-14T18:16:29.515Z,12.80
2023-05-14T18:18:57.566Z,11.20
2023-05-14T18:21:25.948Z,21.30
2023-05-14T18:23:54.458Z,18.20
2023-05-14T18:26:23.281Z,7.60
2023-05-14T18:28:51.571Z,6.80
2023-05-14T18:31:19.718Z,5.40
2023-05-14T18:33:47.814Z,6.10
2023-05-14T18:36:15.892Z,8.30
2023-05-14T18:38:43.996Z,6.60
2023-05-14T18:41:11.972Z,7.70
2023-05-14T18:43:40.026Z,7.50
2023-05-14T18:46:08.474Z,8.50
2023-05-14T18:48:36.660Z,8.60
2023-05-14T18:51:05.658Z,11.00
2023-05-14T18:53:33.841Z,10.40
2023-05-14T18:56:02.018Z,11.50
2023-05-14T18:58:30.183Z,10.20
2023-05-14T19:00:59.076Z,10.70
2023-05-14T19:03:27.273Z,10.50
2023-05-14T19:05:55.598Z,9.60
2023-05-14T19:08:25.845Z,12.50
2023-05-14T19:10:53.821Z,11.30
2023-05-14T19:13:21.824Z,10.40
2023-05-14T19:15:49.864Z,9.40
2023-05-14T19:18:20.269Z,10.30
2023-05-14T19:20:48.201Z,10.10
2023-05-14T19:23:16.212Z,9.90
2023-05-14T19:25:44.162Z,9.40
2023-05-14T19:28:12.178Z,10.30
2023-05-14T19:30:40.415Z,9.40
2023-05-14T19:33:08.588Z,9.40
2023-05-14T19:35:36.761Z,9.00
2023-05-14T19:38:04.810Z,9.20
2023-05-14T19:40:32.800Z,8.50
2023-05-14T19:43:00.767Z,8.70
2023-05-14T19:45:28.678Z,8.30
2023-05-14T19:47:56.930Z,9.20
2023-05-14T19:50:25.587Z,8.70
2023-05-14T19:52:53.580Z,8.90
2023-05-14T19:55:21.569Z,7.80
2023-05-14T19:57:49.609Z,7.50
2023-05-14T20:00:17.796Z,7.10
2023-05-14T20:02:48.097Z,7.60
2023-05-14T20:05:16.772Z,7.20
2023-05-14T20:07:44.875Z,7.30
2023-05-14T20:10:14.187Z,7.40
2023-05-14T20:12:42.136Z,7.30
2023-05-14T20:15:10.528Z,7.80
2023-05-14T20:17:38.809Z,6.70
2023-05-14T20:20:08.309Z,7.50
2023-05-14T20:22:36.264Z,7.40
2023-05-14T20:25:04.967Z,7.20
2023-05-14T20:27:33.343Z,8.00
2023-05-14T20:30:01.441Z,7.70
2023-05-14T20:32:29.424Z,8.50
2023-05-14T20:35:02.096Z,8.00
2023-05-14T20:37:30.609Z,8.00
2023-05-14T20:39:59.522Z,7.40
2023-05-14T20:42:27.950Z,8.10
2023-05-14T20:44:56.087Z,7.00
2023-05-14T20:47:26.556Z,7.20
2023-05-14T20:49:54.670Z,7.70
2023-05-14T20:52:22.595Z,8.80
2023-05-14T20:54:50.741Z,8.10
2023-05-14T20:57:19.022Z,8.20
2023-05-14T20:59:47.568Z,7.30
2023-05-14T21:02:15.759Z,7.60
2023-05-14T21:04:44.163Z,9.00
2023-05-14T21:07:12.232Z,9.10
2023-05-14T21:09:40.197Z,9.20
2023-05-14T21:12:08.703Z,9.50
2023-05-14T21:14:36.932Z,9.20
2023-05-14T21:17:05.220Z,8.10
2023-05-14T21:19:33.112Z,10.10
2023-05-14T21:22:01.000Z,8.50
2023-05-14T21:24:29.079Z,10.00
2023-05-14T21:26:57.039Z,10.00
2023-05-14T21:29:25.272Z,10.10
2023-05-14T21:31:53.261Z,9.60
2023-05-14T21:34:21.188Z,9.70
2023-05-14T21:36:49.170Z,9.90
2023-05-14T21:39:17.145Z,9.60
2023-05-14T21:41:45.049Z,9.50
2023-05-14T21:44:13.087Z,9.40
2023-05-14T21:46:41.009Z,9.70
2023-05-14T21:49:08.988Z,9.80
2023-05-14T21:51:36.967Z,9.30
2023-05-14T21:54:05.241Z,8.30
2023-05-14T21:56:34.980Z,9.00
2023-05-14T21:59:02.964Z,8.50
2023-05-14T22:01:32.570Z,9.70
2023-05-14T22:04:01.819Z,9.70
2023-05-14T22:06:29.768Z,10.30
2023-05-14T22:08:58.504Z,10.30
2023-05-14T22:11:26.577Z,10.30
2023-05-14T22:13:54.477Z,9.50
2023-05-14T22:16:22.930Z,10.20
2023-05-14T22:18:50.990Z,10.70
2023-05-14T22:21:18.922Z,10.20
2023-05-14T22:23:46.871Z,12.00
2023-05-14T22:26:16.069Z,10.50
2023-05-14T22:28:44.043Z,12.90
2023-05-14T22:31:12.072Z,15.80
2023-05-14T22:33:40.021Z,14.80
2023-05-14T22:36:08.293Z,13.20
2023-05-14T22:38:36.260Z,14.20
2023-05-14T22:41:04.180Z,15.80
2023-05-14T22:43:32.076Z,12.90
2023-05-14T22:46:00.145Z,12.50
2023-05-14T22:48:28.281Z,11.10
2023-05-14T22:50:56.193Z,12.00
2023-05-14T22:53:25.252Z,12.60
2023-05-14T22:55:53.499Z,12.60
2023-05-14T22:58:21.476Z,12.80
2023-05-14T23:00:49.408Z,12.60
2023-05-14T23:03:17.349Z,11.50
2023-05-14T23:05:45.365Z,12.00
2023-05-14T23:08:13.467Z,11.30
2023-05-14T23:10:41.391Z,12.20
2023-05-14T23:13:09.361Z,11.30
2023-05-14T23:15:38.814Z,12.50
2023-05-14T23:18:07.779Z,11.60
2023-05-14T23:20:35.960Z,12.70
2023-05-14T23:23:03.882Z,12.60
2023-05-14T23:25:32.084Z,12.20
2023-05-14T23:28:00.041Z,12.90
2023-05-14T23:30:27.976Z,12.10
2023-05-14T23:32:56.070Z,11.80
2023-05-14T23:35:24.506Z,12.80
2023-05-14T23:37:52.871Z,12.30
2023-05-14T23:40:21.033Z,13.30
2023-05-14T23:42:48.970Z,12.70
2023-05-14T23:45:16.961Z,13.00
2023-05-14T23:47:45.022Z,13.70
2023-05-14T23:50:13.059Z,13.20
2023-05-14T23:52:40.949Z,13.20
2023-05-14T23:55:09.372Z,14.10
2023-05-14T23:57:37.404Z,14.40
